Time;durP1;ratioP1;P1;durP2;ratioP2;P2;SDS_P1;SDS_P2;PMS_P1;PMS_P2;Temp;Humidity;BMP_temperature;BMP_pressure;BME280_temperature;BME280_humidity;BME280_pressure;Samples;Min_cycle;Max_cycle;Signal;HPM_P1;HPM_P2
2022/08/29 00:02:11;;;;;;;3.83;2.50;;;11.90;99.90;;;;;;5088417;28;20428;-60
2022/08/29 00:04:36;;;;;;;4.53;2.35;;;11.90;99.90;;;;;;5109521;28;20114;-60
2022/08/29 00:07:02;;;;;;;8.65;2.95;;;11.80;99.90;;;;;;5087055;28;20039;-60
2022/08/29 00:09:27;;;;;;;6.20;2.58;;;11.80;99.90;;;;;;5109299;28;20044;-60
2022/08/29 00:11:53;;;;;;;5.57;2.03;;;11.80;99.90;;;;;;5098684;28;20394;-60
2022/08/29 00:14:18;;;;;;;6.15;2.72;;;11.80;99.90;;;;;;5088759;28;20029;-60
2022/08/29 00:16:44;;;;;;;8.48;2.88;;;11.70;99.90;;;;;;5107220;28;20027;-60
2022/08/29 00:19:09;;;;;;;5.63;2.63;;;11.70;99.90;;;;;;5089984;28;20023;-60
2022/08/29 00:21:35;;;;;;;9.52;3.20;;;11.70;99.90;;;;;;5106681;28;20047;-60
2022/08/29 00:24:00;;;;;;;4.43;2.40;;;11.70;99.90;;;;;;5102561;28;20077;-60
2022/08/29 00:26:26;;;;;;;6.75;2.70;;;11.60;99.90;;;;;;5094213;28;20455;-60
2022/08/29 00:28:51;;;;;;;6.13;2.80;;;11.60;99.90;;;;;;5109653;28;20035;-60
2022/08/29 00:31:17;;;;;;;4.95;2.75;;;11.60;99.90;;;;;;5091578;28;20403;-60
2022/08/29 00:33:43;;;;;;;4.47;2.22;;;11.50;99.90;;;;;;5103708;28;20056;-60
2022/08/29 00:36:09;;;;;;;5.63;2.40;;;11.50;99.90;;;;;;5090870;28;20023;-60
2022/08/29 00:38:35;;;;;;;5.90;2.88;;;11.50;99.90;;;;;;5109559;28;20052;-60
2022/08/29 00:41:00;;;;;;;6.07;2.72;;;11.40;99.90;;;;;;5089938;28;20083;-60
2022/08/29 00:43:29;;;;;;;7.00;2.60;;;11.40;99.90;;;;;;5109301;28;20028;-60
2022/08/29 00:46:18;;;;;;;5.13;2.55;;;11.40;99.90;;;;;;5088590;28;20511;-60
2022/08/29 00:48:48;;;;;;;8.50;3.03;;;11.40;99.90;;;;;;5109532;28;20047;-60
2022/08/29 00:51:17;;;;;;;5.60;2.95;;;11.30;99.90;;;;;;5075110;28;20023;-60
2022/08/29 00:53:46;;;;;;;5.72;2.75;;;11.30;99.90;;;;;;5109384;28;20118;-60
2022/08/29 00:56:14;;;;;;;3.67;2.38;;;11.30;99.90;;;;;;5090554;28;20102;-60
2022/08/29 00:58:44;;;;;;;5.30;2.50;;;11.30;99.90;;;;;;5109806;28;20074;-60
2022/08/29 01:01:10;;;;;;;4.78;2.65;;;11.30;99.90;;;;;;5072902;28;20043;-60
2022/08/29 01:03:36;;;;;;;7.82;2.70;;;11.20;99.90;;;;;;5109306;28;20055;-59
2022/08/29 01:06:02;;;;;;;5.22;2.80;;;11.20;99.90;;;;;;5089098;28;20036;-60
2022/08/29 01:08:29;;;;;;;5.22;2.60;;;11.20;99.90;;;;;;5109202;28;20032;-60
2022/08/29 01:13:42;;;;;;;6.68;2.90;;;11.10;99.90;;;;;;5109327;28;20027;-60
2022/08/29 01:16:11;;;;;;;6.13;2.88;;;11.10;99.90;;;;;;5089228;28;20077;-60
2022/08/29 01:18:38;;;;;;;5.43;2.78;;;11.10;99.90;;;;;;5109206;28;20046;-60
2022/08/29 01:21:18;;;;;;;7.95;2.83;;;11.10;99.90;;;;;;5088494;28;20028;-60
2022/08/29 01:24:07;;;;;;;8.35;3.10;;;11.00;99.90;;;;;;5102838;28;20483;-60
2022/08/29 01:26:33;;;;;;;6.07;3.00;;;11.10;99.90;;;;;;5077888;28;20035;-60
2022/08/29 01:28:59;;;;;;;5.25;2.75;;;11.00;99.90;;;;;;5108899;28;20035;-60
2022/08/29 01:31:27;;;;;;;7.95;2.90;;;11.00;99.90;;;;;;5091533;28;20051;-60
2022/08/29 01:33:56;;;;;;;7.63;2.97;;;11.00;99.90;;;;;;5105159;28;20394;-60
2022/08/29 01:36:32;;;;;;;5.38;2.72;;;11.00;99.90;;;;;;5094444;28;20490;-60
2022/08/29 01:38:58;;;;;;;6.22;3.00;;;10.90;99.90;;;;;;5111613;28;20019;-60
2022/08/29 01:41:24;;;;;;;7.75;2.72;;;10.90;99.90;;;;;;5093374;28;20491;-60
2022/08/29 01:43:53;;;;;;;6.07;2.75;;;10.90;99.90;;;;;;5112839;28;20494;-60
2022/08/29 01:46:29;;;;;;;6.20;2.67;;;10.90;99.90;;;;;;5093619;28;20518;-60
2022/08/29 01:48:56;;;;;;;7.35;3.15;;;10.90;99.90;;;;;;5112640;28;20387;-60
2022/08/29 01:51:23;;;;;;;6.53;2.83;;;10.80;99.90;;;;;;5094194;28;20123;-60
2022/08/29 01:53:50;;;;;;;7.43;3.10;;;10.90;99.90;;;;;;5112502;28;20016;-60
2022/08/29 01:56:19;;;;;;;6.57;3.15;;;10.90;99.90;;;;;;5092880;28;20028;-60
2022/08/29 01:58:46;;;;;;;7.28;3.17;;;10.80;99.90;;;;;;5112603;28;20080;-60
2022/08/29 02:01:14;;;;;;;9.93;2.97;;;10.80;99.90;;;;;;5091948;28;20558;-60
2022/08/29 02:03:40;;;;;;;5.13;2.53;;;10.80;99.90;;;;;;5112523;28;20055;-60
2022/08/29 02:06:08;;;;;;;8.10;2.97;;;10.80;99.90;;;;;;5090975;28;20035;-60
2022/08/29 02:08:35;;;;;;;7.22;3.13;;;10.80;99.90;;;;;;5112398;28;20027;-60
2022/08/29 02:11:00;;;;;;;7.75;3.00;;;10.80;99.90;;;;;;5092334;28;20032;-60
2022/08/29 02:13:27;;;;;;;3.95;2.88;;;10.70;99.90;;;;;;5110152;28;20038;-60
2022/08/29 02:15:52;;;;;;;7.13;3.40;;;10.80;99.90;;;;;;5092259;28;20028;-60
2022/08/29 02:18:18;;;;;;;6.35;3.35;;;10.80;99.90;;;;;;5109630;28;20035;-60
2022/08/29 02:20:45;;;;;;;8.15;3.30;;;10.70;99.90;;;;;;5112031;28;20535;-60
2022/08/29 02:23:10;;;;;;;8.63;3.15;;;10.70;99.90;;;;;;5086976;28;20028;-63
2022/08/29 02:25:42;;;;;;;5.30;3.05;;;10.70;99.90;;;;;;5111382;28;20226;-62
2022/08/29 02:28:10;;;;;;;7.95;3.00;;;10.70;99.90;;;;;;5103927;28;20023;-62
2022/08/29 02:30:37;;;;;;;7.50;3.22;;;10.70;99.90;;;;;;5110510;28;20024;-62
2022/08/29 02:33:03;;;;;;;9.82;3.28;;;10.70;99.90;;;;;;5090094;28;20042;-54
2022/08/29 02:35:29;;;;;;;6.80;3.67;;;10.60;99.90;;;;;;5071274;28;20032;-57
2022/08/29 02:37:55;;;;;;;6.95;3.30;;;10.60;99.90;;;;;;5108946;28;20019;-53
2022/08/29 02:40:21;;;;;;;5.57;2.75;;;10.60;99.90;;;;;;5111696;28;20027;-53
2022/08/29 02:42:46;;;;;;;8.68;3.53;;;10.60;99.90;;;;;;5089998;28;20038;-56
2022/08/29 02:45:12;;;;;;;4.43;2.92;;;10.60;99.90;;;;;;5109840;28;20365;-56
2022/08/29 02:47:38;;;;;;;4.20;2.38;;;10.60;99.90;;;;;;5089877;28;20035;-56
2022/08/29 02:50:06;;;;;;;8.18;3.40;;;10.60;99.90;;;;;;5111040;28;20032;-58
2022/08/29 02:52:32;;;;;;;4.95;2.90;;;10.60;99.90;;;;;;5101015;28;20027;-57
2022/08/29 02:54:57;;;;;;;4.05;2.70;;;10.60;99.90;;;;;;5091548;28;20028;-56
2022/08/29 02:57:23;;;;;;;7.45;3.47;;;10.50;99.90;;;;;;5108940;28;20494;-57
2022/08/29 02:59:49;;;;;;;5.72;3.15;;;10.50;99.90;;;;;;5091415;28;20039;-57
2022/08/29 03:02:14;;;;;;;5.75;3.28;;;10.50;99.90;;;;;;5108534;28;20040;-55
2022/08/29 03:04:40;;;;;;;6.50;3.22;;;10.60;99.90;;;;;;5091511;28;20047;-58
2022/08/29 03:07:05;;;;;;;7.32;3.00;;;10.50;99.90;;;;;;5108670;28;20450;-57
2022/08/29 03:09:31;;;;;;;4.30;3.10;;;10.50;99.90;;;;;;5111444;28;20027;-54
2022/08/29 03:11:56;;;;;;;11.50;3.55;;;10.50;99.90;;;;;;5095322;28;20099;-55
2022/08/29 03:14:23;;;;;;;6.07;3.92;;;10.50;99.90;;;;;;5110552;28;20016;-55
2022/08/29 03:16:48;;;;;;;8.93;3.60;;;10.50;99.90;;;;;;5093178;28;20636;-54
2022/08/29 03:19:14;;;;;;;5.22;3.45;;;10.50;99.90;;;;;;5111101;28;20020;-56
2022/08/29 03:21:40;;;;;;;8.43;2.80;;;10.50;99.90;;;;;;5107140;28;20152;-55
2022/08/29 03:24:05;;;;;;;6.05;3.47;;;10.50;99.90;;;;;;5104873;28;20450;-57
2022/08/29 03:26:31;;;;;;;8.00;2.92;;;10.50;99.90;;;;;;5090858;28;20064;-55
2022/08/29 03:28:56;;;;;;;6.22;3.10;;;10.50;99.90;;;;;;5109792;28;20524;-56
2022/08/29 03:31:22;;;;;;;6.22;3.10;;;10.50;99.90;;;;;;5089484;28;20058;-57
2022/08/29 03:33:47;;;;;;;6.22;3.05;;;10.40;99.90;;;;;;5104411;28;20040;-61
2022/08/29 03:36:13;;;;;;;7.32;3.00;;;10.40;99.90;;;;;;5090548;28;20069;-49
2022/08/29 03:38:38;;;;;;;8.13;3.38;;;10.40;99.90;;;;;;5107909;28;20043;-62
2022/08/29 03:41:06;;;;;;;4.82;2.90;;;10.40;99.90;;;;;;5110686;27;20027;-62
2022/08/29 03:43:32;;;;;;;4.70;2.80;;;10.40;99.90;;;;;;5088590;28;20043;-63
2022/08/29 03:45:57;;;;;;;8.63;3.30;;;10.40;99.90;;;;;;5109814;28;20035;-62
2022/08/29 03:48:23;;;;;;;6.13;3.08;;;10.40;99.90;;;;;;5088958;28;20055;-62
2022/08/29 03:50:48;;;;;;;6.65;3.28;;;10.40;99.90;;;;;;5109681;28;20035;-62
2022/08/29 03:53:14;;;;;;;7.72;3.67;;;10.40;99.90;;;;;;5088848;28;20032;-63
2022/08/29 03:55:40;;;;;;;4.15;2.78;;;10.40;99.90;;;;;;5109321;28;20055;-62
2022/08/29 03:58:05;;;;;;;9.90;3.55;;;10.30;99.90;;;;;;5088600;28;20028;-63
2022/08/29 04:00:31;;;;;;;7.90;3.28;;;10.40;99.90;;;;;;5109542;28;20028;-62
2022/08/29 04:02:57;;;;;;;6.05;3.10;;;10.30;99.90;;;;;;5082762;28;20044;-62
2022/08/29 04:05:24;;;;;;;7.20;3.78;;;10.40;99.90;;;;;;5089857;28;20053;-63
2022/08/29 04:07:52;;;;;;;8.60;3.53;;;10.40;99.90;;;;;;5086089;28;20036;-62
2022/08/29 04:10:27;;;;;;;7.78;3.83;;;10.40;99.90;;;;;;5095387;28;20040;-63
2022/08/29 04:12:53;;;;;;;10.77;2.85;;;10.40;99.90;;;;;;5098653;28;20059;-63
2022/08/29 04:15:19;;;;;;;5.70;3.35;;;10.40;99.90;;;;;;5088906;28;20035;-62
2022/08/29 04:17:44;;;;;;;8.18;3.83;;;10.40;99.90;;;;;;5095769;28;20024;-62
2022/08/29 04:20:12;;;;;;;9.95;3.22;;;10.40;99.90;;;;;;5088071;28;20077;-62
2022/08/29 04:22:39;;;;;;;7.18;3.33;;;10.50;99.90;;;;;;5086025;28;20055;-62
2022/08/29 04:25:08;;;;;;;10.07;3.60;;;10.50;99.90;;;;;;5088717;28;20036;-63
2022/08/29 04:27:35;;;;;;;8.05;4.28;;;10.50;99.90;;;;;;5095034;28;20050;-63
2022/08/29 04:30:03;;;;;;;8.23;3.28;;;10.50;99.90;;;;;;5089059;28;20043;-63
2022/08/29 04:32:29;;;;;;;7.43;3.17;;;10.60;99.90;;;;;;5106637;28;20032;-63
2022/08/29 04:34:56;;;;;;;6.70;3.35;;;10.60;99.90;;;;;;5086892;28;20194;-63
2022/08/29 04:37:22;;;;;;;7.70;3.70;;;10.70;99.90;;;;;;5093128;28;20115;-63
2022/08/29 04:39:47;;;;;;;6.40;3.47;;;10.70;99.90;;;;;;5100060;28;20094;-62
2022/08/29 04:42:13;;;;;;;7.72;3.80;;;10.80;99.90;;;;;;5098409;28;20031;-62
2022/08/29 04:44:38;;;;;;;9.40;3.58;;;10.80;99.90;;;;;;5108941;28;20023;-62
2022/08/29 04:47:04;;;;;;;7.50;3.60;;;10.90;99.90;;;;;;5090850;28;20464;-62
2022/08/29 04:49:30;;;;;;;9.70;3.65;;;11.00;99.90;;;;;;5108762;28;20027;-63
2022/08/29 04:51:56;;;;;;;5.85;3.53;;;11.10;99.90;;;;;;5087960;28;20028;-62
2022/08/29 04:54:22;;;;;;;11.02;3.90;;;11.30;99.90;;;;;;5108693;28;20024;-62
2022/08/29 04:56:47;;;;;;;5.22;2.90;;;11.40;99.90;;;;;;5088128;28;20024;-61
2022/08/29 04:59:14;;;;;;;5.25;3.20;;;11.60;99.90;;;;;;5108644;28;20073;-63
2022/08/29 05:01:40;;;;;;;7.70;2.95;;;11.70;99.90;;;;;;5086324;28;20115;-62
2022/08/29 05:04:05;;;;;;;4.90;3.55;;;11.90;99.90;;;;;;5108435;28;20116;-63
2022/08/29 05:06:31;;;;;;;7.50;3.33;;;12.10;99.90;;;;;;5087870;28;20388;-62
2022/08/29 05:08:56;;;;;;;8.18;3.03;;;12.30;99.90;;;;;;5105530;28;20568;-62
2022/08/29 05:11:22;;;;;;;6.50;3.20;;;12.40;99.90;;;;;;5108365;28;20503;-62
2022/08/29 05:13:48;;;;;;;7.20;3.10;;;12.60;99.90;;;;;;5086375;28;20034;-62
2022/08/29 05:16:15;;;;;;;7.45;3.17;;;12.70;99.90;;;;;;5107627;28;20110;-63
2022/08/29 05:18:43;;;;;;;6.80;3.95;;;12.80;99.90;;;;;;5086259;28;20391;-63
2022/08/29 05:21:09;;;;;;;8.50;3.65;;;12.90;99.90;;;;;;5107629;28;20028;-62
2022/08/29 05:23:34;;;;;;;8.57;3.40;;;13.00;99.90;;;;;;5079961;28;20036;-62
2022/08/29 05:26:02;;;;;;;5.60;3.60;;;13.10;99.90;;;;;;5086473;28;20093;-62
2022/08/29 05:28:30;;;;;;;8.90;3.67;;;13.30;99.90;;;;;;5085446;28;20020;-63
2022/08/29 05:30:55;;;;;;;13.55;3.88;;;13.40;99.90;;;;;;5105763;28;20027;-62
2022/08/29 05:33:21;;;;;;;7.43;3.25;;;13.60;99.90;;;;;;5088323;28;20396;-62
2022/08/29 05:35:46;;;;;;;7.43;3.53;;;14.00;99.90;;;;;;5107889;28;20020;-62
2022/08/29 05:38:13;;;;;;;6.88;4.10;;;14.30;99.90;;;;;;5084302;28;20039;-62
2022/08/29 05:40:39;;;;;;;5.70;3.20;;;14.60;99.90;;;;;;5107135;28;20028;-62
2022/08/29 05:43:06;;;;;;;6.90;3.63;;;14.70;99.90;;;;;;5096737;28;20380;-62
2022/08/29 05:45:31;;;;;;;7.05;4.07;;;14.80;99.90;;;;;;5087867;28;20020;-63
2022/08/29 05:48:01;;;;;;;7.40;4.07;;;14.80;99.90;;;;;;5104977;28;20023;-63
2022/08/29 05:50:26;;;;;;;11.63;3.65;;;14.90;99.90;;;;;;5087219;28;20328;-63
2022/08/29 05:52:52;;;;;;;15.73;4.55;;;14.90;99.90;;;;;;5105041;28;20560;-62
2022/08/29 05:55:17;;;;;;;10.13;4.25;;;14.80;99.90;;;;;;5087906;28;20072;-63
2022/08/29 05:57:43;;;;;;;9.20;4.45;;;14.90;99.90;;;;;;5103543;28;20119;-62
2022/08/29 06:00:09;;;;;;;15.00;4.55;;;15.00;99.90;;;;;;5107890;28;20073;-63
2022/08/29 06:02:34;;;;;;;4.47;3.30;;;15.10;99.90;;;;;;5091578;28;20057;-63
2022/08/29 06:05:00;;;;;;;11.55;4.03;;;15.10;99.90;;;;;;5107681;28;20027;-63
2022/08/29 06:07:26;;;;;;;7.72;4.20;;;15.20;99.90;;;;;;5089852;28;20038;-63
2022/08/29 06:09:54;;;;;;;15.75;4.30;;;15.30;99.90;;;;;;5106390;28;20115;-63
2022/08/29 06:12:19;;;;;;;11.07;5.25;;;15.40;99.90;;;;;;5089124;28;20670;-63
2022/08/29 06:14:45;;;;;;;7.63;4.00;;;15.50;99.90;;;;;;5107480;28;20020;-62
2022/08/29 06:17:11;;;;;;;11.13;4.50;;;15.60;99.90;;;;;;5104187;28;20027;-62
2022/08/29 06:19:38;;;;;;;10.27;4.80;;;15.70;99.90;;;;;;5110569;28;20020;-62
2022/08/29 06:22:05;;;;;;;8.98;4.18;;;15.90;99.90;;;;;;5087131;28;20118;-62
2022/08/29 06:24:31;;;;;;;9.00;4.28;;;16.00;99.90;;;;;;5111198;28;20032;-62
2022/08/29 06:26:57;;;;;;;9.35;4.85;;;16.10;99.90;;;;;;5095245;28;20066;-61
2022/08/29 06:29:22;;;;;;;8.95;4.28;;;16.30;99.90;;;;;;5090908;28;20125;-62
2022/08/29 06:31:48;;;;;;;11.75;4.78;;;16.30;99.90;;;;;;5110267;28;20034;-60
2022/08/29 06:34:13;;;;;;;6.30;4.22;;;16.50;99.90;;;;;;5098942;28;20058;-61
2022/08/29 06:36:39;;;;;;;9.00;4.22;;;16.50;99.90;;;;;;5091110;28;20103;-60
2022/08/29 06:39:07;;;;;;;6.75;4.10;;;16.60;99.90;;;;;;5093617;28;20994;-61
2022/08/29 06:41:33;;;;;;;7.93;4.35;;;16.70;99.90;;;;;;5110515;28;20603;-61
2022/08/29 06:43:59;;;;;;;7.75;4.38;;;16.80;99.90;;;;;;5093622;28;20020;-61
2022/08/29 06:46:34;;;;;;;7.40;4.35;;;16.90;99.90;;;;;;5111816;28;20042;-61
2022/08/29 06:49:02;;;;;;;9.77;3.90;;;17.00;99.90;;;;;;5089579;28;20039;-61
2022/08/29 06:51:31;;;;;;;10.32;4.68;;;17.00;99.90;;;;;;5111177;28;20291;-60
2022/08/29 06:54:00;;;;;;;11.15;4.55;;;17.10;99.90;;;;;;5089373;28;20035;-60
2022/08/29 06:56:26;;;;;;;8.07;4.10;;;17.10;99.90;;;;;;5111210;28;20028;-61
2022/08/29 06:58:52;;;;;;;10.70;3.92;;;17.30;99.90;;;;;;5088490;28;20652;-60
2022/08/29 07:01:18;;;;;;;11.35;5.00;;;17.50;99.90;;;;;;5110349;28;20031;-61
2022/08/29 07:03:45;;;;;;;8.00;3.78;;;17.70;99.90;;;;;;5089076;28;20044;-60
2022/08/29 07:06:11;;;;;;;6.57;3.85;;;17.70;99.90;;;;;;5110434;28;20036;-60
2022/08/29 07:08:37;;;;;;;7.45;3.33;;;17.70;99.90;;;;;;5089355;28;20082;-59
2022/08/29 07:11:03;;;;;;;10.38;4.15;;;17.70;99.90;;;;;;5110447;28;20253;-61
2022/08/29 07:13:28;;;;;;;7.95;4.32;;;17.70;99.90;;;;;;5089268;28;20596;-61
2022/08/29 07:15:54;;;;;;;8.13;4.03;;;17.70;99.40;;;;;;5110476;28;20023;-60
2022/08/29 07:18:20;;;;;;;10.25;3.78;;;17.60;99.90;;;;;;5099331;28;20115;-61
2022/08/29 07:20:45;;;;;;;7.13;4.00;;;17.60;99.70;;;;;;5090844;27;20043;-60
2022/08/29 07:23:11;;;;;;;11.85;4.82;;;17.60;99.90;;;;;;5104623;28;20047;-61
2022/08/29 07:25:37;;;;;;;8.73;4.10;;;17.70;99.90;;;;;;5090788;28;20078;-60
2022/08/29 07:28:03;;;;;;;6.00;4.10;;;17.70;99.60;;;;;;5108133;28;20049;-61
2022/08/29 07:30:29;;;;;;;7.38;4.45;;;17.70;99.40;;;;;;5110298;28;20044;-61
2022/08/29 07:32:54;;;;;;;9.43;4.43;;;17.70;99.80;;;;;;5095099;28;20039;-61
2022/08/29 07:35:20;;;;;;;8.85;4.43;;;17.70;99.10;;;;;;5110493;28;20039;-61
2022/08/29 07:37:46;;;;;;;9.60;4.22;;;17.70;98.60;;;;;;5093653;28;20027;-60
2022/08/29 07:40:14;;;;;;;7.07;4.03;;;17.80;99.50;;;;;;5109145;28;20028;-61
2022/08/29 07:42:40;;;;;;;8.32;4.75;;;17.70;98.40;;;;;;5092203;28;20036;-60
2022/08/29 07:45:07;;;;;;;8.85;3.97;;;17.80;98.30;;;;;;5110405;28;20024;-61
2022/08/29 07:47:34;;;;;;;9.48;4.70;;;17.70;98.40;;;;;;5091223;28;20039;-60
2022/08/29 07:50:02;;;;;;;7.53;4.55;;;17.80;98.00;;;;;;5110248;28;20024;-60
2022/08/29 07:52:28;;;;;;;7.68;4.38;;;17.80;97.60;;;;;;5090527;28;20554;-60
2022/08/29 07:54:54;;;;;;;7.72;4.50;;;17.80;97.10;;;;;;5110278;28;20108;-60
2022/08/29 07:57:20;;;;;;;8.23;4.32;;;17.90;97.20;;;;;;5089314;28;20058;-61
2022/08/29 07:59:45;;;;;;;13.30;3.95;;;17.90;97.00;;;;;;5110165;28;20055;-61
2022/08/29 08:02:11;;;;;;;7.43;4.18;;;17.90;96.70;;;;;;5090078;28;20089;-60
2022/08/29 08:04:36;;;;;;;8.50;4.10;;;18.10;97.20;;;;;;5107631;28;20038;-60
2022/08/29 08:07:02;;;;;;;8.27;3.83;;;18.10;96.40;;;;;;5090073;28;20062;-60
2022/08/29 08:09:27;;;;;;;9.45;4.13;;;18.20;96.00;;;;;;5107573;28;20103;-61
2022/08/29 08:11:53;;;;;;;7.50;3.95;;;18.30;95.20;;;;;;5109663;28;20047;-61
2022/08/29 08:14:19;;;;;;;7.25;3.83;;;18.40;95.60;;;;;;5088284;28;20391;-60
2022/08/29 08:16:45;;;;;;;4.65;3.85;;;18.50;95.00;;;;;;5108815;28;20410;-60
2022/08/29 08:19:14;;;;;;;10.27;4.20;;;18.70;94.00;;;;;;5088065;28;20415;-60
2022/08/29 08:21:42;;;;;;;6.18;3.97;;;18.80;93.50;;;;;;5104555;28;20093;-59
2022/08/29 08:24:08;;;;;;;6.55;3.80;;;18.90;92.70;;;;;;5084391;28;20036;-60
2022/08/29 08:26:34;;;;;;;6.80;3.95;;;19.00;92.70;;;;;;5108799;28;20461;-61
2022/08/29 08:28:59;;;;;;;9.15;4.25;;;19.10;91.70;;;;;;5087770;28;20059;-60
2022/08/29 08:31:25;;;;;;;10.10;4.15;;;19.20;91.80;;;;;;5108546;28;20028;-60
2022/08/29 08:33:51;;;;;;;7.30;4.07;;;19.20;91.40;;;;;;5087765;28;20040;-60
2022/08/29 08:36:20;;;;;;;7.55;4.50;;;19.30;90.00;;;;;;5108804;28;20059;-61
2022/08/29 08:38:46;;;;;;;11.80;5.05;;;19.40;90.60;;;;;;5087604;28;20028;-60
2022/08/29 08:41:23;;;;;;;8.10;4.60;;;19.60;87.20;;;;;;5108274;28;20031;-61
2022/08/29 08:44:00;;;;;;;8.43;3.92;;;19.60;84.90;;;;;;5087379;28;20548;-61
2022/08/29 08:46:43;;;;;;;5.82;3.65;;;19.60;85.90;;;;;;5068907;28;20028;-61
2022/08/29 08:49:15;;;;;;;11.25;4.55;;;19.60;81.00;;;;;;5096278;28;20031;-61
2022/08/29 08:51:49;;;;;;;9.82;4.78;;;19.50;85.10;;;;;;5107581;28;20035;-60
2022/08/29 08:54:25;;;;;;;6.85;4.18;;;19.40;84.70;;;;;;5097801;28;20056;-61
2022/08/29 08:56:55;;;;;;;;;;;19.40;83.70;;;;;;5069075;28;20024;-62
2022/08/29 08:59:27;;;;;;;7.38;3.92;;;19.30;77.60;;;;;;5106990;28;19907;-61
2022/08/29 09:02:22;;;;;;;8.55;4.18;;;19.30;85.60;;;;;;5108770;28;20527;-61
2022/08/29 09:04:56;;;;;;;10.60;4.95;;;19.40;82.20;;;;;;5105817;28;20059;-61
2022/08/29 09:07:44;;;;;;;9.52;4.57;;;19.40;83.00;;;;;;5108803;28;20046;-61
2022/08/29 09:10:17;;;;;;;9.80;4.53;;;19.40;76.60;;;;;;5107717;28;20051;-61
2022/08/29 09:12:57;;;;;;;9.45;4.45;;;19.40;79.70;;;;;;5070433;28;20078;-60
2022/08/29 09:15:30;;;;;;;7.00;3.83;;;19.40;82.30;;;;;;5108996;28;20020;-61
2022/08/29 09:18:06;;;;;;;6.20;3.88;;;19.50;83.50;;;;;;5073854;28;20032;-61
2022/08/29 09:20:37;;;;;;;9.93;3.88;;;19.70;83.10;;;;;;5108982;28;20080;-61
2022/08/29 09:23:22;;;;;;;8.50;3.92;;;19.80;82.80;;;;;;5068826;28;20035;-61
2022/08/29 09:25:49;;;;;;;7.55;3.95;;;20.00;79.60;;;;;;5108825;28;20391;-61
2022/08/29 09:28:15;;;;;;;10.20;4.72;;;20.10;80.40;;;;;;5092842;28;20032;-61
2022/08/29 09:30:42;;;;;;;8.02;4.00;;;20.10;78.60;;;;;;5108765;28;20429;-60
2022/08/29 09:33:11;;;;;;;8.90;4.25;;;20.10;80.10;;;;;;5091493;28;20031;-61
2022/08/29 09:35:40;;;;;;;6.15;3.28;;;20.10;80.20;;;;;;5108697;28;20032;-59
2022/08/29 09:38:16;;;;;;;10.10;3.88;;;20.30;79.70;;;;;;5090976;28;20023;-63
2022/08/29 09:40:54;;;;;;;8.05;3.88;;;20.50;79.00;;;;;;5108840;28;20055;-62
2022/08/29 09:43:38;;;;;;;7.32;4.18;;;20.70;74.10;;;;;;5092970;28;20067;-51
2022/08/29 09:46:09;;;;;;;8.57;4.25;;;20.90;72.20;;;;;;5088897;28;20115;-56
2022/08/29 09:48:38;;;;;;;6.80;3.47;;;21.00;75.00;;;;;;5105993;28;20024;-56
2022/08/29 09:51:27;;;;;;;6.78;3.47;;;21.10;75.70;;;;;;5088317;28;20039;-52
2022/08/29 09:54:08;;;;;;;5.90;3.28;;;21.10;73.80;;;;;;5089411;28;20577;-56
2022/08/29 09:56:36;;;;;;;7.47;4.15;;;21.10;74.20;;;;;;5071951;28;20059;-54
2022/08/29 09:59:15;;;;;;;7.40;3.72;;;21.10;73.90;;;;;;5110161;28;20163;-52
2022/08/29 10:01:40;;;;;;;7.47;3.50;;;21.10;73.80;;;;;;5071833;28;20033;-56
2022/08/29 10:04:06;;;;;;;6.35;3.78;;;21.20;74.40;;;;;;5109603;28;20034;-57
2022/08/29 10:06:39;;;;;;;7.22;3.08;;;21.30;73.20;;;;;;5112124;28;20026;-54
2022/08/29 10:09:11;;;;;;;4.88;3.17;;;21.40;74.00;;;;;;5093390;28;20039;-56
2022/08/29 10:11:54;;;;;;;8.30;3.90;;;21.60;72.80;;;;;;5091718;28;20058;-54
2022/08/29 10:14:37;;;;;;;4.90;3.30;;;21.80;69.30;;;;;;5097531;28;20039;-55
2022/08/29 10:19:59;;;;;;;6.50;3.67;;;22.00;70.70;;;;;;5108296;28;20039;-56
2022/08/29 10:22:43;;;;;;;5.65;3.30;;;22.20;70.10;;;;;;5101104;28;20044;-56
2022/08/29 10:25:34;;;;;;;5.75;3.28;;;22.20;68.10;;;;;;5091622;28;20040;-55
2022/08/29 10:28:15;;;;;;;4.47;3.75;;;22.30;66.00;;;;;;5073825;28;20036;-53
2022/08/29 10:30:52;;;;;;;4.70;3.33;;;22.50;61.30;;;;;;5111876;28;20023;-56
2022/08/29 10:33:40;;;;;;;5.88;3.25;;;22.80;62.70;;;;;;5078688;28;20028;-52
2022/08/29 10:36:17;;;;;;;4.45;3.58;;;22.90;62.10;;;;;;5112044;28;20046;-55
2022/08/29 10:38:46;;;;;;;9.18;4.18;;;22.90;62.60;;;;;;5085012;28;20027;-56
2022/08/29 10:41:25;;;;;;;6.38;3.00;;;22.80;63.40;;;;;;5091351;28;20028;-56
2022/08/29 10:44:22;;;;;;;5.20;3.10;;;22.80;62.90;;;;;;5086797;28;20024;-55
2022/08/29 10:46:55;;;;;;;;;;;22.70;57.80;;;;;;5071623;28;20025;-51
2022/08/29 10:49:20;;;;;;;8.50;3.13;;;22.50;55.60;;;;;;5109636;28;19907;-56
2022/08/29 10:51:48;;;;;;;8.48;3.47;;;22.50;63.70;;;;;;5111540;28;20031;-51
2022/08/29 10:54:31;;;;;;;6.10;3.33;;;22.60;63.40;;;;;;5090029;28;20047;-49
2022/08/29 10:56:58;;;;;;;6.38;3.20;;;22.60;60.90;;;;;;5069712;28;20036;-52
2022/08/29 10:59:49;;;;;;;6.72;3.58;;;22.60;62.40;;;;;;5107692;28;20084;-50
2022/08/29 11:02:30;;;;;;;5.35;2.88;;;22.50;62.10;;;;;;5070824;28;20028;-56
2022/08/29 11:05:02;;;;;;;4.43;3.17;;;22.40;60.40;;;;;;5103026;28;20039;-55
2022/08/29 11:07:33;;;;;;;4.53;2.95;;;22.40;61.90;;;;;;5070748;28;20025;-51
2022/08/29 11:10:14;;;;;;;7.60;3.75;;;22.30;61.80;;;;;;5104291;28;20059;-50
2022/08/29 11:12:55;;;;;;;3.88;3.08;;;22.10;62.50;;;;;;5070659;28;20557;-53
2022/08/29 11:15:35;;;;;;;4.68;3.13;;;22.10;62.90;;;;;;5070594;28;20514;-51
2022/08/29 11:18:22;;;;;;;6.30;3.92;;;22.10;63.80;;;;;;5070665;28;20050;-53
2022/08/29 11:20:52;;;;;;;6.15;3.63;;;22.10;62.90;;;;;;5111298;28;20136;-49
2022/08/29 11:23:30;;;;;;;5.88;3.60;;;22.20;61.90;;;;;;5085201;28;20108;-52
2022/08/29 11:26:02;;;;;;;5.88;3.92;;;22.40;61.20;;;;;;5110987;28;20383;-51
2022/08/29 11:28:39;;;;;;;6.50;3.45;;;22.40;62.80;;;;;;5077209;28;20447;-50
2022/08/29 11:31:20;;;;;;;4.70;3.53;;;22.50;61.40;;;;;;5109550;28;20069;-50
2022/08/29 11:34:02;;;;;;;4.28;3.10;;;22.70;61.60;;;;;;5082021;28;20040;-52
2022/08/29 11:36:55;;;;;;;4.93;3.10;;;22.80;61.40;;;;;;5110841;28;20023;-57
2022/08/29 11:39:45;;;;;;;4.65;3.45;;;23.00;59.00;;;;;;5089393;28;20089;-58
2022/08/29 11:42:12;;;;;;;7.00;3.80;;;23.10;60.70;;;;;;5070337;28;20040;-59
2022/08/29 11:44:48;;;;;;;5.05;3.60;;;23.20;59.20;;;;;;5108202;28;20057;-59
2022/08/29 11:47:38;;;;;;;4.07;2.97;;;23.20;59.50;;;;;;5068981;28;20772;-59
2022/08/29 11:50:15;;;;;;;6.07;3.03;;;23.30;55.30;;;;;;5102485;28;20024;-57
2022/08/29 11:52:50;;;;;;;4.93;3.20;;;23.30;56.50;;;;;;5093171;28;20550;-58
2022/08/29 11:55:38;;;;;;;6.78;3.53;;;23.40;56.90;;;;;;5087257;28;20035;-59
2022/08/29 11:58:25;;;;;;;4.82;3.58;;;23.30;55.40;;;;;;5067556;28;20035;-60
2022/08/29 12:00:53;;;;;;;5.55;3.05;;;23.20;57.70;;;;;;5093102;28;20379;-57
2022/08/29 12:03:34;;;;;;;6.03;3.33;;;23.30;58.00;;;;;;5089389;28;20024;-59
2022/08/29 12:06:14;;;;;;;4.28;3.20;;;23.30;56.00;;;;;;5109337;28;20615;-59
2022/08/29 12:09:00;;;;;;;6.57;2.90;;;23.30;55.10;;;;;;5091671;28;20033;-58
2022/08/29 12:12:11;;;;;;;4.23;3.07;;;23.40;56.60;;;;;;5109364;28;20076;-56
2022/08/29 12:14:44;;;;;;;3.78;2.97;;;23.60;56.30;;;;;;5092801;28;20265;-60
2022/08/29 12:17:30;;;;;;;3.90;2.60;;;23.60;55.50;;;;;;5068299;28;20060;-58
2022/08/29 12:19:55;;;;;;;3.83;3.00;;;23.40;53.30;;;;;;5097324;28;20034;-54
2022/08/29 12:22:58;;;;;;;7.30;3.08;;;23.30;56.70;;;;;;5095794;28;20430;-58
2022/08/29 12:25:27;;;;;;;5.47;2.83;;;23.10;55.80;;;;;;5083504;28;20051;-58
2022/08/29 12:28:05;;;;;;;5.18;2.95;;;23.00;57.10;;;;;;5088303;28;20487;-59
2022/08/29 12:30:41;;;;;;;4.13;3.22;;;22.90;56.30;;;;;;5106745;28;20019;-56
2022/08/29 12:33:18;;;;;;;4.57;2.55;;;22.80;56.10;;;;;;5107839;28;20059;-58
2022/08/29 12:36:19;;;;;;;4.95;2.88;;;22.90;56.30;;;;;;5070890;28;20032;-58
2022/08/29 12:39:12;;;;;;;3.25;2.40;;;22.90;55.90;;;;;;5071794;28;20040;-58
2022/08/29 12:42:09;;;;;;;5.65;2.97;;;22.80;55.90;;;;;;5088977;28;20016;-58
2022/08/29 12:44:38;;;;;;;3.03;2.40;;;22.60;56.80;;;;;;5089719;28;20032;-57
2022/08/29 12:47:29;;;;;;;5.80;3.08;;;22.50;57.70;;;;;;5087916;28;20028;-59
2022/08/29 12:49:59;;;;;;;4.05;2.63;;;22.30;57.70;;;;;;5100549;28;20560;-60
2022/08/29 12:52:36;;;;;;;5.45;3.10;;;22.20;58.90;;;;;;5067930;28;20037;-58
2022/08/29 12:55:25;;;;;;;6.53;3.10;;;22.10;59.10;;;;;;5096769;28;20035;-58
2022/08/29 12:57:52;;;;;;;4.00;2.38;;;22.00;59.20;;;;;;5108134;28;20391;-57
2022/08/29 13:00:24;;;;;;;5.22;3.20;;;22.00;59.80;;;;;;5086828;28;20016;-56
2022/08/29 13:03:07;;;;;;;5.03;2.85;;;21.90;60.00;;;;;;5108195;28;20092;-57
2022/08/29 13:05:35;;;;;;;4.57;2.53;;;21.90;60.40;;;;;;5086119;28;20103;-59
2022/08/29 13:08:06;;;;;;;5.45;2.92;;;21.80;60.50;;;;;;5108093;28;20039;-56